Time;durP1;ratioP1;P1;durP2;ratioP2;P2;SDS_P1;SDS_P2;PMS_P1;PMS_P2;Temp;Humidity;BMP_temperature;BMP_pressure;BME280_temperature;BME280_humidity;BME280_pressure;Samples;Min_cycle;Max_cycle;Signal;HPM_P1;HPM_P2
2023/01/15 00:01:33;;;;;;;1.52;0.70;;;19.70;59.20;;;;;;5018860;28;20587;-65
2023/01/15 00:04:02;;;;;;;1.30;0.80;;;19.70;59.20;;;;;;5018404;28;20217;-64
2023/01/15 00:06:31;;;;;;;1.52;0.85;;;19.70;59.10;;;;;;5018366;28;20222;-65
2023/01/15 00:08:58;;;;;;;0.88;0.70;;;19.70;59.20;;;;;;5001740;28;20278;-65
2023/01/15 00:11:24;;;;;;;1.58;0.82;;;19.70;59.20;;;;;;5018741;28;20210;-65
2023/01/15 00:13:50;;;;;;;0.73;0.50;;;19.70;59.20;;;;;;5002289;28;20187;-63
2023/01/15 00:16:22;;;;;;;0.77;0.70;;;19.70;59.20;;;;;;5002012;28;20199;-65
2023/01/15 00:18:58;;;;;;;0.50;0.50;;;19.70;59.80;;;;;;5001619;28;20237;-65
2023/01/15 00:21:26;;;;;;;1.42;0.73;;;19.70;59.20;;;;;;5002083;28;20258;-65
2023/01/15 00:29:23;;;;;;;0.75;0.75;;;19.70;59.20;;;;;;5035543;28;20191;-65
2023/01/15 00:32:05;;;;;;;0.63;0.63;;;19.70;59.10;;;;;;5018022;28;20563;-65
2023/01/15 00:34:32;;;;;;;1.70;0.70;;;19.70;59.10;;;;;;5017951;28;20167;-64
2023/01/15 00:37:00;;;;;;;1.10;0.70;;;19.70;59.10;;;;;;5034290;28;20191;-65
2023/01/15 00:39:27;;;;;;;0.50;0.50;;;19.70;59.20;;;;;;5017935;28;20206;-65
2023/01/15 00:41:54;;;;;;;0.50;0.50;;;19.70;59.20;;;;;;5008013;28;20274;-65
2023/01/15 00:44:20;;;;;;;2.65;0.75;;;19.70;59.20;;;;;;5034535;28;20187;-64
2023/01/15 00:46:47;;;;;;;0.50;0.50;;;19.70;59.20;;;;;;5001036;28;20611;-65
2023/01/15 00:49:13;;;;;;;0.57;0.57;;;19.70;59.10;;;;;;5014295;28;20188;-65
2023/01/15 00:51:39;;;;;;;0.63;0.60;;;19.70;59.20;;;;;;5031607;28;20179;-65
2023/01/15 00:54:05;;;;;;;0.80;0.70;;;19.70;59.20;;;;;;5017408;28;20214;-63
2023/01/15 00:56:32;;;;;;;0.60;0.60;;;19.70;59.10;;;;;;5001242;28;20207;-65
2023/01/15 00:59:02;;;;;;;0.77;0.70;;;19.70;59.10;;;;;;5000324;28;20183;-65
2023/01/15 01:01:28;;;;;;;0.85;0.68;;;19.70;59.10;;;;;;5014392;28;20184;-65
2023/01/15 01:03:54;;;;;;;0.90;0.63;;;19.70;59.10;;;;;;4999123;28;20195;-65
2023/01/15 01:06:22;;;;;;;0.50;0.50;;;19.70;59.00;;;;;;5013824;28;20719;-65
2023/01/15 01:08:49;;;;;;;1.52;0.60;;;19.70;59.10;;;;;;5016564;28;20277;-64
2023/01/15 01:11:20;;;;;;;0.50;0.50;;;19.70;59.10;;;;;;5017399;28;20189;-65
2023/01/15 01:13:46;;;;;;;0.80;0.68;;;19.70;59.00;;;;;;5017323;28;20187;-65
2023/01/15 01:16:29;;;;;;;0.60;0.60;;;19.70;59.00;;;;;;5025948;28;20203;-65
2023/01/15 01:18:57;;;;;;;1.02;0.60;;;19.70;59.00;;;;;;4998624;28;20180;-65
2023/01/15 01:21:23;;;;;;;0.50;0.50;;;19.70;59.10;;;;;;5013943;28;20318;-65
2023/01/15 01:23:49;;;;;;;0.80;0.80;;;19.70;59.10;;;;;;5031847;28;20185;-65
2023/01/15 01:26:15;;;;;;;0.77;0.77;;;19.60;59.00;;;;;;5013355;28;20291;-65
2023/01/15 01:28:42;;;;;;;0.88;0.70;;;19.70;59.10;;;;;;4997192;28;20179;-65
2023/01/15 01:31:09;;;;;;;0.80;0.80;;;19.70;59.10;;;;;;5000331;28;20183;-65
2023/01/15 01:33:35;;;;;;;0.70;0.55;;;19.60;59.00;;;;;;5000276;28;20658;-64
2023/01/15 01:36:01;;;;;;;0.88;0.68;;;19.70;59.10;;;;;;5000244;28;20203;-65
2023/01/15 01:38:27;;;;;;;0.85;0.70;;;19.60;59.00;;;;;;5013366;28;20188;-64
2023/01/15 01:40:52;;;;;;;1.35;0.63;;;19.70;59.10;;;;;;4998215;28;20194;-65
2023/01/15 01:43:26;;;;;;;0.50;0.50;;;19.70;59.10;;;;;;5017122;28;20185;-65
2023/01/15 01:45:52;;;;;;;0.73;0.50;;;19.70;59.00;;;;;;5016387;28;20207;-65
2023/01/15 01:48:27;;;;;;;0.60;0.60;;;19.60;59.00;;;;;;5029606;28;20230;-65
2023/01/15 01:50:57;;;;;;;1.10;0.60;;;19.60;58.90;;;;;;5032913;28;20642;-65
2023/01/15 01:53:29;;;;;;;0.80;0.60;;;19.70;59.00;;;;;;5033163;28;20176;-65
2023/01/15 01:55:56;;;;;;;0.63;0.60;;;19.60;58.90;;;;;;4999896;28;20266;-65
2023/01/15 01:58:27;;;;;;;0.55;0.55;;;19.70;59.00;;;;;;5016118;28;20179;-65
2023/01/15 02:00:53;;;;;;;0.70;0.70;;;19.60;58.90;;;;;;5016327;28;20191;-65
2023/01/15 02:03:25;;;;;;;0.80;0.80;;;19.60;58.90;;;;;;5010584;28;20199;-65
2023/01/15 02:05:58;;;;;;;0.50;0.50;;;19.60;59.50;;;;;;5024381;28;20215;-65
2023/01/15 02:08:26;;;;;;;0.65;0.60;;;19.70;59.10;;;;;;5032602;28;20283;-65
2023/01/15 02:10:55;;;;;;;0.80;0.60;;;19.60;59.00;;;;;;5000034;28;20183;-65
2023/01/15 02:13:40;;;;;;;1.13;0.70;;;19.70;59.10;;;;;;5000780;28;20179;-65
2023/01/15 02:16:25;;;;;;;0.60;0.50;;;19.70;59.10;;;;;;4999304;28;20269;-65
2023/01/15 02:19:40;;;;;;;0.68;0.60;;;19.70;59.10;;;;;;4996509;28;20239;-65
2023/01/15 02:22:50;;;;;;;0.77;0.52;;;19.70;59.00;;;;;;4971988;28;20207;-64
2023/01/15 02:25:41;;;;;;;0.50;0.50;;;19.60;59.00;;;;;;5016184;28;20206;-64
2023/01/15 02:28:22;;;;;;;0.50;0.50;;;19.60;59.00;;;;;;5015461;28;20215;-64
2023/01/15 02:31:01;;;;;;;0.60;0.50;;;19.70;59.10;;;;;;4999056;28;20191;-64
2023/01/15 02:33:36;;;;;;;0.68;0.65;;;19.70;59.10;;;;;;4993952;28;20393;-65
2023/01/15 02:36:07;;;;;;;0.70;0.70;;;19.60;59.00;;;;;;4998197;28;20230;-65
2023/01/15 02:38:42;;;;;;;0.60;0.60;;;19.70;59.10;;;;;;5031821;28;20210;-65
2023/01/15 02:41:15;;;;;;;0.60;0.60;;;19.70;59.10;;;;;;4999092;28;20237;-65
2023/01/15 02:43:46;;;;;;;0.70;0.50;;;19.70;59.10;;;;;;5015647;28;20183;-65
2023/01/15 02:46:16;;;;;;;0.77;0.50;;;19.70;59.10;;;;;;5015007;28;20225;-65
2023/01/15 02:48:51;;;;;;;1.50;0.70;;;19.60;59.10;;;;;;5015267;28;20208;-65
2023/01/15 02:51:23;;;;;;;0.45;0.45;;;19.70;59.10;;;;;;4998964;28;20175;-65
2023/01/15 02:53:56;;;;;;;0.40;0.40;;;19.60;59.10;;;;;;4995912;28;20247;-65
2023/01/15 02:56:27;;;;;;;0.60;0.60;;;19.70;59.10;;;;;;5015268;28;20203;-65
2023/01/15 02:58:59;;;;;;;0.60;0.60;;;19.70;59.10;;;;;;5031363;28;20273;-65
2023/01/15 03:01:34;;;;;;;0.55;0.55;;;19.70;59.20;;;;;;4999145;28;20274;-65
2023/01/15 03:04:36;;;;;;;0.30;0.30;;;19.70;59.20;;;;;;5014978;28;20214;-65
2023/01/15 03:07:58;;;;;;;0.65;0.45;;;19.70;59.20;;;;;;4990324;28;20239;-65
2023/01/15 03:11:01;;;;;;;0.47;0.45;;;19.70;59.20;;;;;;4991328;28;20206;-64
2023/01/15 03:13:58;;;;;;;0.38;0.38;;;19.70;59.20;;;;;;5006825;28;20210;-64
2023/01/15 03:16:34;;;;;;;0.50;0.50;;;19.70;59.20;;;;;;5006424;28;20203;-65
2023/01/15 03:19:26;;;;;;;0.60;0.60;;;19.70;59.20;;;;;;5012368;28;20301;-65
2023/01/15 03:22:21;;;;;;;0.85;0.50;;;19.70;59.30;;;;;;5011813;28;20192;-64
2023/01/15 03:25:01;;;;;;;0.40;0.40;;;19.70;59.20;;;;;;5019664;28;20283;-65
2023/01/15 03:27:31;;;;;;;1.15;0.55;;;19.70;59.20;;;;;;5008287;28;20213;-65
2023/01/15 03:30:20;;;;;;;1.15;0.40;;;19.70;59.30;;;;;;5013357;28;20680;-64
2023/01/15 03:32:48;;;;;;;0.50;0.50;;;19.70;59.30;;;;;;5014823;28;20179;-65
2023/01/15 03:35:51;;;;;;;0.47;0.40;;;19.70;59.30;;;;;;5014709;28;20179;-64
2023/01/15 03:38:46;;;;;;;0.40;0.40;;;19.70;59.30;;;;;;5028632;28;20185;-65
2023/01/15 03:41:43;;;;;;;0.50;0.50;;;19.70;59.30;;;;;;4987403;28;20188;-64
2023/01/15 03:44:52;;;;;;;0.50;0.50;;;19.70;59.30;;;;;;5009927;28;20196;-64
2023/01/15 03:47:42;;;;;;;0.50;0.50;;;19.70;59.30;;;;;;4997934;28;20211;-65
2023/01/15 03:50:31;;;;;;;0.50;0.50;;;19.70;59.30;;;;;;5027190;28;20211;-65
2023/01/15 03:53:20;;;;;;;0.50;0.50;;;19.70;59.40;;;;;;5009151;28;20773;-65
2023/01/15 03:56:14;;;;;;;0.40;0.40;;;19.70;59.30;;;;;;5027380;28;20239;-64
2023/01/15 03:58:52;;;;;;;0.85;0.60;;;19.70;59.30;;;;;;5022687;28;20195;-64
2023/01/15 04:01:33;;;;;;;0.60;0.50;;;19.70;59.40;;;;;;4988788;28;20275;-65
2023/01/15 04:04:01;;;;;;;0.43;0.43;;;19.70;59.40;;;;;;5003725;28;20216;-65
2023/01/15 04:06:33;;;;;;;0.50;0.50;;;19.70;59.30;;;;;;5031771;28;20211;-65
2023/01/15 04:09:02;;;;;;;0.32;0.32;;;19.70;59.30;;;;;;5013913;28;20187;-65
2023/01/15 04:11:30;;;;;;;0.40;0.40;;;19.70;59.40;;;;;;5024392;28;20179;-65
2023/01/15 04:14:04;;;;;;;0.50;0.50;;;19.70;59.40;;;;;;4997497;28;20266;-65
2023/01/15 04:16:52;;;;;;;1.23;0.40;;;19.70;59.40;;;;;;5000725;28;20207;-65
2023/01/15 04:19:22;;;;;;;0.40;0.40;;;19.70;59.40;;;;;;4994971;28;20177;-65
2023/01/15 04:21:55;;;;;;;0.55;0.40;;;19.70;59.40;;;;;;5007564;28;20188;-64
2023/01/15 04:24:20;;;;;;;0.40;0.40;;;19.70;59.40;;;;;;5010805;28;20180;-64
2023/01/15 04:26:46;;;;;;;0.50;0.50;;;19.70;59.40;;;;;;5006397;28;20271;-65
2023/01/15 04:29:12;;;;;;;0.30;0.30;;;19.70;59.40;;;;;;5011788;28;20279;-65
2023/01/15 04:31:37;;;;;;;0.30;0.30;;;19.70;59.40;;;;;;5031605;28;20190;-65
2023/01/15 04:34:03;;;;;;;0.63;0.57;;;19.70;59.40;;;;;;5010417;28;20187;-65
2023/01/15 04:36:29;;;;;;;0.50;0.50;;;19.70;59.40;;;;;;5014114;28;20242;-64
2023/01/15 04:38:56;;;;;;;0.30;0.30;;;19.70;59.40;;;;;;5021835;28;20278;-65
2023/01/15 04:44:07;;;;;;;0.43;0.43;;;19.70;59.40;;;;;;5014755;28;20209;-64
2023/01/15 04:46:59;;;;;;;0.35;0.35;;;19.70;59.40;;;;;;5014798;28;20223;-65
2023/01/15 04:49:25;;;;;;;0.50;0.50;;;19.70;59.40;;;;;;5015464;28;20250;-65
2023/01/15 04:51:51;;;;;;;0.77;0.60;;;19.70;59.40;;;;;;4993447;28;20244;-64
2023/01/15 04:54:17;;;;;;;0.50;0.50;;;19.60;59.40;;;;;;5035096;28;20187;-65
2023/01/15 04:56:49;;;;;;;0.30;0.30;;;19.70;59.50;;;;;;5017594;28;20206;-64
2023/01/15 04:59:17;;;;;;;0.47;0.40;;;19.70;59.50;;;;;;5017124;28;20183;-64
2023/01/15 05:01:43;;;;;;;0.40;0.40;;;19.70;59.50;;;;;;5035120;28;20180;-65
2023/01/15 05:04:09;;;;;;;0.40;0.40;;;19.70;59.50;;;;;;5017614;28;20189;-65
2023/01/15 05:06:35;;;;;;;1.13;0.30;;;19.60;59.40;;;;;;5000661;28;20223;-65
2023/01/15 05:09:04;;;;;;;0.88;0.50;;;19.70;59.50;;;;;;5016965;28;20218;-65
2023/01/15 05:11:30;;;;;;;0.40;0.32;;;19.70;59.50;;;;;;5017153;28;20250;-65
2023/01/15 05:13:56;;;;;;;0.43;0.40;;;19.70;59.50;;;;;;5033896;28;20179;-64
2023/01/15 05:16:25;;;;;;;0.50;0.50;;;19.70;59.50;;;;;;4997338;28;20287;-65
2023/01/15 05:18:55;;;;;;;0.40;0.40;;;19.70;59.50;;;;;;4988672;28;20187;-65
2023/01/15 05:21:28;;;;;;;0.40;0.40;;;19.70;59.50;;;;;;5000800;28;20175;-65
2023/01/15 05:23:59;;;;;;;0.50;0.50;;;19.70;59.50;;;;;;5017159;28;20600;-65
2023/01/15 05:26:26;;;;;;;0.40;0.40;;;19.70;59.50;;;;;;5016986;28;20255;-65
2023/01/15 05:28:54;;;;;;;0.50;0.50;;;19.70;59.50;;;;;;5016597;28;20180;-65
2023/01/15 05:31:21;;;;;;;0.30;0.30;;;19.70;59.50;;;;;;5016645;28;20172;-65
2023/01/15 05:33:47;;;;;;;0.50;0.50;;;19.70;59.50;;;;;;5013603;28;20188;-65
2023/01/15 05:36:18;;;;;;;0.70;0.50;;;19.70;59.60;;;;;;4998977;28;20203;-65
2023/01/15 05:38:44;;;;;;;0.40;0.40;;;19.70;59.60;;;;;;5029765;28;20180;-64
2023/01/15 05:44:03;;;;;;;0.40;0.40;;;19.60;59.50;;;;;;5019990;28;20600;-65
2023/01/15 05:46:29;;;;;;;0.50;0.50;;;19.70;59.60;;;;;;4999799;28;20705;-65
2023/01/15 05:49:00;;;;;;;0.82;0.43;;;19.60;59.50;;;;;;5016547;28;20179;-65
2023/01/15 05:51:27;;;;;;;0.40;0.40;;;19.70;59.60;;;;;;5034042;28;20183;-65
2023/01/15 05:53:52;;;;;;;0.30;0.30;;;19.60;59.50;;;;;;5033142;28;20187;-65
2023/01/15 05:56:18;;;;;;;0.52;0.52;;;19.70;59.60;;;;;;5032712;28;20207;-64
2023/01/15 05:58:44;;;;;;;0.30;0.30;;;19.70;59.60;;;;;;5013081;28;20184;-65
2023/01/15 06:01:10;;;;;;;0.40;0.40;;;19.60;59.50;;;;;;4997794;28;20191;-65
2023/01/15 06:03:36;;;;;;;0.30;0.30;;;19.60;59.50;;;;;;5016017;28;20267;-64
2023/01/15 06:06:03;;;;;;;1.00;0.30;;;19.60;59.50;;;;;;5015986;28;20341;-64
2023/01/15 06:08:29;;;;;;;0.40;0.40;;;19.70;59.60;;;;;;5015940;28;20202;-64
2023/01/15 06:10:55;;;;;;;1.25;0.40;;;19.70;59.70;;;;;;4999646;28;20191;-65
2023/01/15 06:13:21;;;;;;;0.80;0.40;;;19.70;59.60;;;;;;5033626;28;20186;-65
2023/01/15 06:15:47;;;;;;;0.20;0.20;;;19.60;59.50;;;;;;5032320;28;20215;-65
2023/01/15 06:18:13;;;;;;;0.57;0.30;;;19.70;59.70;;;;;;5032141;28;20188;-65
2023/01/15 06:20:41;;;;;;;0.57;0.50;;;19.70;59.70;;;;;;5033407;28;20175;-65
2023/01/15 06:23:08;;;;;;;0.30;0.30;;;19.60;59.60;;;;;;5015833;28;20202;-65
2023/01/15 06:25:36;;;;;;;0.50;0.50;;;19.60;59.60;;;;;;5032176;28;20183;-65
2023/01/15 06:28:07;;;;;;;0.35;0.35;;;19.60;59.60;;;;;;5015272;28;20199;-65
2023/01/15 06:30:34;;;;;;;0.30;0.30;;;19.60;59.60;;;;;;5012118;28;20223;-65
2023/01/15 06:33:00;;;;;;;0.30;0.30;;;19.60;59.60;;;;;;4995724;28;20262;-64
2023/01/15 06:35:26;;;;;;;0.30;0.30;;;19.60;59.60;;;;;;5031903;28;20274;-65
2023/01/15 06:37:52;;;;;;;0.30;0.30;;;19.60;59.60;;;;;;5032113;28;20241;-64
2023/01/15 06:40:18;;;;;;;0.30;0.30;;;19.70;59.70;;;;;;4998977;28;20676;-65
2023/01/15 06:48:24;;;;;;;0.30;0.30;;;19.70;59.70;;;;;;5031709;28;20234;-65
2023/01/15 06:50:49;;;;;;;0.47;0.43;;;19.70;59.70;;;;;;5015516;28;20195;-65
2023/01/15 06:53:15;;;;;;;0.40;0.40;;;19.70;59.70;;;;;;5015303;28;20176;-65
2023/01/15 06:55:41;;;;;;;0.30;0.30;;;19.60;59.70;;;;;;5015099;28;20656;-64
2023/01/15 06:58:07;;;;;;;0.30;0.30;;;19.70;59.80;;;;;;5015228;28;20195;-65
2023/01/15 07:00:33;;;;;;;0.77;0.38;;;19.60;59.70;;;;;;5014415;28;20261;-64
2023/01/15 07:03:00;;;;;;;0.30;0.30;;;19.60;59.70;;;;;;5011112;28;20186;-66
2023/01/15 07:05:26;;;;;;;0.30;0.30;;;19.60;59.70;;;;;;5015030;28;20636;-65
2023/01/15 07:07:52;;;;;;;0.38;0.38;;;19.60;59.70;;;;;;5014464;28;20207;-64
2023/01/15 07:10:18;;;;;;;0.20;0.20;;;19.60;59.70;;;;;;5015049;28;20194;-65
2023/01/15 07:12:44;;;;;;;0.60;0.32;;;19.70;59.80;;;;;;5011647;28;20183;-65
2023/01/15 07:15:10;;;;;;;0.30;0.30;;;19.60;59.70;;;;;;5006490;28;20237;-65
2023/01/15 07:17:36;;;;;;;0.90;0.50;;;19.70;59.80;;;;;;4997651;28;20631;-65
2023/01/15 07:20:03;;;;;;;0.20;0.20;;;19.60;59.70;;;;;;4991446;28;20215;-65
2023/01/15 07:22:29;;;;;;;0.60;0.30;;;19.60;59.70;;;;;;5007019;28;20187;-65
2023/01/15 07:24:55;;;;;;;0.75;0.30;;;19.60;59.80;;;;;;5011472;28;20239;-65
2023/01/15 07:27:22;;;;;;;0.43;0.30;;;19.60;59.70;;;;;;5024773;28;20223;-64
2023/01/15 07:29:49;;;;;;;0.43;0.38;;;19.60;59.70;;;;;;4998336;28;20198;-65
2023/01/15 07:32:15;;;;;;;0.52;0.52;;;19.60;59.70;;;;;;4996436;28;20187;-64
2023/01/15 07:34:41;;;;;;;0.57;0.57;;;19.60;59.70;;;;;;4998199;28;20246;-65
2023/01/15 07:37:06;;;;;;;1.10;0.30;;;19.60;59.70;;;;;;4997963;28;20222;-65
2023/01/15 07:39:32;;;;;;;0.30;0.30;;;19.60;60.50;;;;;;5014572;28;20206;-64
2023/01/15 07:50:23;;;;;;;0.73;0.50;;;19.60;59.80;;;;;;5030546;28;20270;-65
2023/01/15 07:52:49;;;;;;;0.60;0.60;;;19.60;59.90;;;;;;4994702;28;20180;-65
2023/01/15 07:55:15;;;;;;;0.50;0.50;;;19.60;59.80;;;;;;5012234;28;20201;-65
2023/01/15 07:57:42;;;;;;;0.60;0.60;;;19.70;59.90;;;;;;5030597;28;20207;-64
2023/01/15 08:00:17;;;;;;;0.30;0.30;;;19.70;60.00;;;;;;5010893;28;20283;-65
2023/01/15 08:02:44;;;;;;;0.40;0.40;;;19.60;59.90;;;;;;5031050;28;20179;-65
2023/01/15 08:05:11;;;;;;;1.30;0.52;;;19.60;59.90;;;;;;4995362;28;20630;-65
2023/01/15 08:07:41;;;;;;;0.40;0.40;;;19.60;59.90;;;;;;5030588;28;20234;-65
2023/01/15 08:10:09;;;;;;;0.43;0.43;;;19.60;60.10;;;;;;5014201;28;20222;-67
2023/01/15 08:15:20;;;;;;;0.35;0.35;;;19.60;60.00;;;;;;5012592;28;20202;-65
2023/01/15 08:17:49;;;;;;;0.50;0.35;;;19.60;60.00;;;;;;5031052;28;20552;-65
2023/01/15 08:20:25;;;;;;;0.30;0.30;;;19.60;60.10;;;;;;5016941;28;20241;-64
2023/01/15 08:22:51;;;;;;;0.40;0.40;;;19.60;60.10;;;;;;5014731;28;20194;-65
2023/01/15 08:25:22;;;;;;;1.92;0.40;;;19.60;60.10;;;;;;5033504;28;20195;-65
2023/01/15 08:27:49;;;;;;;0.30;0.30;;;19.60;59.90;;;;;;5018099;28;20214;-65
2023/01/15 08:30:22;;;;;;;0.52;0.35;;;19.60;60.00;;;;;;5001374;28;20644;-65
2023/01/15 08:32:48;;;;;;;1.30;0.50;;;19.60;59.90;;;;;;5034505;28;20187;-64
2023/01/15 08:35:14;;;;;;;1.40;0.40;;;19.70;60.10;;;;;;5034355;28;20266;-65
2023/01/15 08:37:41;;;;;;;0.30;0.30;;;19.70;60.20;;;;;;5034156;28;20290;-65
2023/01/15 08:40:11;;;;;;;0.50;0.40;;;19.70;60.20;;;;;;5001210;28;20179;-65
2023/01/15 08:42:37;;;;;;;0.38;0.35;;;19.60;60.00;;;;;;5017767;28;20762;-65
2023/01/15 08:45:03;;;;;;;0.98;0.40;;;19.70;60.20;;;;;;5034270;28;20187;-65
2023/01/15 08:47:31;;;;;;;0.32;0.30;;;19.70;60.20;;;;;;5017309;28;20912;-65
2023/01/15 08:49:56;;;;;;;0.30;0.30;;;19.70;60.20;;;;;;5017342;28;20190;-65
2023/01/15 08:52:22;;;;;;;0.50;0.50;;;19.60;60.10;;;;;;5033955;28;20179;-65
2023/01/15 08:54:48;;;;;;;0.30;0.30;;;19.60;59.90;;;;;;5014534;28;20556;-65
2023/01/15 08:57:14;;;;;;;0.32;0.32;;;19.60;60.00;;;;;;4998088;28;20242;-65
2023/01/15 08:59:42;;;;;;;0.60;0.47;;;19.60;60.00;;;;;;5009270;28;20190;-65
2023/01/15 09:02:12;;;;;;;0.40;0.40;;;19.60;60.00;;;;;;5033862;28;20274;-65
2023/01/15 09:04:38;;;;;;;1.00;0.30;;;19.60;60.00;;;;;;4990965;28;20581;-65
2023/01/15 09:07:03;;;;;;;0.82;0.50;;;19.60;59.90;;;;;;4997508;28;20251;-65
2023/01/15 09:09:29;;;;;;;0.60;0.35;;;19.60;60.00;;;;;;5016332;28;20191;-65
2023/01/15 09:11:55;;;;;;;0.40;0.40;;;19.60;60.00;;;;;;5000841;28;20187;-65
2023/01/15 09:14:21;;;;;;;0.38;0.30;;;19.60;59.90;;;;;;5034790;28;20187;-65
2023/01/15 09:16:46;;;;;;;0.47;0.38;;;19.60;59.90;;;;;;4999905;28;20226;-66
2023/01/15 09:19:12;;;;;;;0.57;0.32;;;19.60;59.90;;;;;;5022714;28;20634;-66
2023/01/15 09:21:38;;;;;;;0.50;0.50;;;19.70;60.00;;;;;;5016890;28;20245;-66
2023/01/15 09:24:04;;;;;;;1.05;0.40;;;19.60;59.90;;;;;;5033482;28;20191;-65
2023/01/15 09:26:37;;;;;;;0.50;0.50;;;19.60;59.90;;;;;;5034470;28;20211;-66
2023/01/15 09:29:05;;;;;;;1.65;0.60;;;19.60;59.90;;;;;;5013361;28;20572;-65
2023/01/15 09:31:31;;;;;;;1.13;0.43;;;19.70;60.00;;;;;;5013572;28;20202;-66
2023/01/15 09:33:58;;;;;;;0.45;0.45;;;19.60;59.80;;;;;;5011726;28;20241;-66
2023/01/15 09:36:27;;;;;;;0.73;0.50;;;19.60;59.80;;;;;;5034319;28;20207;-66
2023/01/15 09:38:57;;;;;;;0.35;0.35;;;19.70;59.90;;;;;;5032679;28;20245;-66
2023/01/15 09:44:49;;;;;;;1.58;0.50;;;19.60;59.80;;;;;;5016392;28;20190;-65
2023/01/15 09:47:35;;;;;;;0.65;0.40;;;19.60;59.80;;;;;;5033813;28;20211;-66
2023/01/15 09:50:44;;;;;;;0.95;0.60;;;19.60;59.90;;;;;;5012867;28;20722;-65
2023/01/15 09:53:57;;;;;;;0.60;0.60;;;19.60;59.80;;;;;;4971723;28;20192;-66
2023/01/15 09:56:28;;;;;;;0.40;0.40;;;19.60;59.80;;;;;;5014173;28;20214;-66
2023/01/15 09:58:57;;;;;;;1.05;0.40;;;19.60;59.80;;;;;;5002610;28;20192;-66
2023/01/15 10:01:31;;;;;;;0.30;0.30;;;19.60;59.80;;;;;;5014010;28;20189;-65
2023/01/15 10:04:14;;;;;;;0.50;0.50;;;19.60;59.70;;;;;;5032472;28;20187;-65
2023/01/15 10:06:50;;;;;;;0.60;0.47;;;19.60;59.70;;;;;;4996884;28;20211;-65
2023/01/15 10:09:30;;;;;;;0.50;0.50;;;19.60;59.80;;;;;;4999315;28;20191;-65
2023/01/15 10:15:22;;;;;;;0.98;0.45;;;19.60;59.80;;;;;;5009595;28;20190;-65
2023/01/15 10:17:55;;;;;;;0.90;0.50;;;19.60;59.80;;;;;;4975016;28;20219;-65
2023/01/15 10:20:33;;;;;;;0.80;0.50;;;19.60;59.70;;;;;;5032243;28;20182;-66
2023/01/15 10:23:56;;;;;;;0.50;0.50;;;19.60;59.80;;;;;;5032253;28;20245;-66
2023/01/15 10:26:34;;;;;;;3.10;0.60;;;19.60;59.70;;;;;;4983324;28;20251;-65
2023/01/15 10:29:35;;;;;;;0.50;0.50;;;19.60;59.80;;;;;;4996703;28;20293;-65
2023/01/15 10:32:46;;;;;;;1.00;0.65;;;19.60;59.70;;;;;;5010440;28;20194;-65
2023/01/15 10:35:53;;;;;;;0.65;0.50;;;19.60;59.80;;;;;;4996039;28;20198;-68
2023/01/15 10:38:46;;;;;;;0.60;0.60;;;19.60;59.80;;;;;;4995993;28;20190;-67
2023/01/15 10:41:30;;;;;;;1.38;0.90;;;19.60;59.70;;;;;;4998889;28;20191;-68
2023/01/15 10:44:04;;;;;;;1.52;0.80;;;19.60;59.70;;;;;;5026363;28;20222;-67
2023/01/15 10:46:37;;;;;;;0.57;0.57;;;19.60;59.70;;;;;;5046265;23;20228;-69
2023/01/15 10:49:12;;;;;;;3.38;0.70;;;19.60;59.70;;;;;;4997199;28;20259;-69
2023/01/15 10:52:09;;;;;;;1.13;0.68;;;19.60;59.80;;;;;;4992921;28;20641;-69
2023/01/15 10:54:47;;;;;;;2.05;0.70;;;19.60;59.70;;;;;;5010923;28;20203;-69
2023/01/15 10:57:42;;;;;;;1.77;0.80;;;19.60;59.70;;;;;;4989722;28;20216;-69
2023/01/15 11:00:10;;;;;;;0.65;0.50;;;19.60;59.60;;;;;;5004077;28;20688;-70
2023/01/15 11:02:38;;;;;;;0.70;0.70;;;19.60;59.70;;;;;;5026945;28;20192;-70
2023/01/15 11:05:05;;;;;;;2.25;0.98;;;19.60;59.70;;;;;;5011632;28;20594;-70
2023/01/15 11:07:42;;;;;;;0.70;0.50;;;19.60;59.60;;;;;;4993909;28;20208;-70
2023/01/15 11:10:14;;;;;;;1.20;0.63;;;19.60;59.70;;;;;;5011472;28;20191;-69
2023/01/15 11:21:30;;;;;;;1.15;0.55;;;19.60;59.60;;;;;;4987396;28;20208;-69
2023/01/15 11:23:59;;;;;;;0.90;0.65;;;19.50;59.50;;;;;;5004984;28;20203;-70
2023/01/15 11:26:29;;;;;;;0.77;0.70;;;19.60;59.60;;;;;;5001998;28;20219;-70
2023/01/15 11:28:57;;;;;;;0.60;0.60;;;19.60;59.60;;;;;;5001226;28;20196;-70
2023/01/15 11:31:36;;;;;;;0.95;0.70;;;19.60;59.60;;;;;;4976126;28;20188;-69
2023/01/15 11:34:06;;;;;;;0.52;0.50;;;19.60;59.60;;;;;;5011341;28;20267;-69
2023/01/15 11:36:33;;;;;;;0.98;0.50;;;19.60;59.60;;;;;;4994630;28;20211;-69
2023/01/15 11:38:59;;;;;;;0.52;0.50;;;19.50;60.20;;;;;;4983551;28;20199;-69
2023/01/15 11:53:00;;;;;;;0.75;0.70;;;19.60;59.60;;;;;;5009430;28;20188;-69
2023/01/15 11:55:27;;;;;;;1.35;0.95;;;19.60;59.50;;;;;;5004766;28;20284;-69
2023/01/15 11:57:56;;;;;;;1.33;0.80;;;19.60;59.50;;;;;;5004013;28;20234;-69
2023/01/15 12:00:34;;;;;;;1.40;0.73;;;19.60;59.50;;;;;;4994075;28;20222;-69
2023/01/15 12:03:15;;;;;;;0.98;0.88;;;19.60;59.50;;;;;;4992547;28;20196;-69
2023/01/15 12:05:52;;;;;;;1.73;0.80;;;19.60;59.50;;;;;;5007413;28;20254;-69
2023/01/15 12:08:52;;;;;;;0.93;0.52;;;19.50;59.50;;;;;;4994447;28;20218;-69
2023/01/15 12:11:44;;;;;;;1.70;0.70;;;19.60;59.50;;;;;;5011239;28;20242;-69
2023/01/15 12:14:43;;;;;;;0.77;0.77;;;19.60;59.50;;;;;;4991462;28;20291;-69
2023/01/15 12:17:36;;;;;;;1.95;0.90;;;19.60;59.40;;;;;;4997887;28;20231;-70
2023/01/15 12:20:43;;;;;;;1.92;0.90;;;19.60;59.50;;;;;;5003930;28;20227;-69
2023/01/15 12:23:47;;;;;;;1.30;1.10;;;19.50;59.40;;;;;;4994673;28;20203;-69
2023/01/15 12:26:25;;;;;;;0.90;0.90;;;19.50;59.30;;;;;;4999188;28;20303;-69
2023/01/15 12:29:11;;;;;;;1.05;0.95;;;19.50;59.30;;;;;;4987516;28;20196;-69
2023/01/15 12:31:50;;;;;;;2.50;0.65;;;19.50;59.30;;;;;;4992004;28;20212;-70
2023/01/15 12:34:34;;;;;;;2.35;0.70;;;19.60;59.60;;;;;;5003608;28;20197;-70
2023/01/15 12:37:25;;;;;;;1.95;0.93;;;19.60;59.60;;;;;;5004769;28;20216;-70
2023/01/15 12:40:19;;;;;;;2.72;0.82;;;19.60;59.50;;;;;;4978327;28;20184;-71
2023/01/15 12:45:41;;;;;;;1.35;0.70;;;19.60;59.40;;;;;;4991410;28;20216;-70
2023/01/15 12:48:38;;;;;;;3.30;0.80;;;19.60;59.50;;;;;;4991064;28;20311;-70
2023/01/15 12:51:06;;;;;;;1.77;0.80;;;19.60;59.50;;;;;;5005966;28;20186;-70
2023/01/15 12:53:59;;;;;;;2.50;1.02;;;19.50;59.40;;;;;;5005667;28;20185;-70
2023/01/15 12:56:46;;;;;;;0.80;0.80;;;19.60;59.40;;;;;;5018998;28;20672;-70
2023/01/15 12:59:36;;;;;;;0.88;0.80;;;19.50;59.40;;;;;;5001222;28;20172;-70
2023/01/15 13:02:27;;;;;;;1.00;0.90;;;19.50;59.30;;;;;;5005499;28;20196;-70
2023/01/15 13:05:21;;;;;;;0.70;0.70;;;19.50;59.30;;;;;;5003627;28;20223;-70
2023/01/15 13:08:02;;;;;;;0.77;0.73;;;19.50;59.30;;;;;;5006943;28;20199;-70
2023/01/15 13:10:34;;;;;;;0.98;0.70;;;19.50;59.20;;;;;;5010585;28;20623;-70
2023/01/15 13:13:34;;;;;;;2.13;0.80;;;19.50;59.20;;;;;;5023654;28;20192;-70
2023/01/15 13:16:26;;;;;;;2.33;0.70;;;19.50;59.20;;;;;;5010171;28;20294;-70
2023/01/15 13:19:07;;;;;;;2.85;0.90;;;19.50;59.20;;;;;;4994071;28;20196;-70
2023/01/15 13:21:35;;;;;;;0.95;0.80;;;19.50;59.20;;;;;;4995004;28;20611;-70
2023/01/15 13:24:29;;;;;;;0.65;0.57;;;19.50;59.20;;;;;;4997724;28;20188;-69
2023/01/15 13:27:23;;;;;;;1.75;0.70;;;19.50;59.40;;;;;;4998304;28;20216;-70
2023/01/15 13:30:16;;;;;;;0.85;0.80;;;19.50;59.30;;;;;;5010153;28;20196;-69
2023/01/15 13:32:50;;;;;;;1.52;0.70;;;19.50;59.20;;;;;;5012454;28;20203;-69
2023/01/15 13:35:32;;;;;;;2.35;0.90;;;19.50;59.30;;;;;;5004461;28;20275;-69
2023/01/15 13:38:04;;;;;;;1.13;0.90;;;19.50;59.20;;;;;;4993670;28;20219;-69
2023/01/15 13:40:33;;;;;;;1.10;0.80;;;19.50;59.30;;;;;;5011020;28;20192;-69
2023/01/15 13:43:03;;;;;;;1.15;0.70;;;19.50;59.20;;;;;;4986547;28;20208;-69
2023/01/15 13:45:47;;;;;;;1.38;0.80;;;19.50;59.20;;;;;;5002108;28;20196;-69
2023/01/15 13:48:35;;;;;;;0.65;0.55;;;19.50;59.20;;;;;;5012892;28;20294;-69
2023/01/15 13:51:06;;;;;;;1.63;0.70;;;19.50;59.20;;;;;;5013734;28;20176;-69
2023/01/15 13:53:44;;;;;;;2.88;0.70;;;19.50;59.20;;;;;;4997015;28;20573;-69
2023/01/15 13:56:15;;;;;;;0.95;0.70;;;19.50;59.20;;;;;;5013432;28;20219;-69
2023/01/15 13:59:24;;;;;;;0.77;0.60;;;19.50;59.20;;;;;;5014172;28;20199;-69
2023/01/15 14:01:50;;;;;;;0.93;0.73;;;19.50;59.20;;;;;;5004845;28;20221;-69
2023/01/15 14:04:16;;;;;;;2.42;0.90;;;19.50;59.10;;;;;;5002110;28;20267;-69
2023/01/15 14:06:44;;;;;;;2.53;0.65;;;19.50;59.10;;;;;;5012943;28;20227;-69
2023/01/15 14:09:27;;;;;;;1.08;0.80;;;19.50;59.10;;;;;;5005184;28;20207;-69
2023/01/15 14:12:30;;;;;;;0.80;0.75;;;19.50;59.10;;;;;;4997671;28;20196;-70
2023/01/15 14:15:25;;;;;;;1.85;0.70;;;19.50;59.10;;;;;;5010649;28;20643;-69
2023/01/15 14:18:30;;;;;;;0.80;0.75;;;19.50;59.10;;;;;;5031930;28;20211;-70
2023/01/15 14:21:46;;;;;;;1.98;0.80;;;19.50;59.10;;;;;;4998160;28;20255;-70
2023/01/15 14:24:44;;;;;;;1.92;0.80;;;19.50;59.10;;;;;;4993190;28;20219;-70